Time;durP1;ratioP1;P1;durP2;ratioP2;P2;SDS_P1;SDS_P2;PMS_P1;PMS_P2;Temp;Humidity;BMP_temperature;BMP_pressure;BME280_temperature;BME280_humidity;BME280_pressure;Samples;Min_cycle;Max_cycle;Signal;HPM_P1;HPM_P2
2022/09/27 00:01:49;;;;;;;531.05;475.98;;;13.90;99.90;;;;;;5044699;28;20191;-76
2022/09/27 00:04:16;;;;;;;519.70;465.35;;;13.90;99.90;;;;;;5051794;28;20232;-78
2022/09/27 00:06:43;;;;;;;536.38;481.48;;;13.80;99.90;;;;;;5047418;28;20194;-75
2022/09/27 00:09:10;;;;;;;520.80;466.35;;;13.80;99.90;;;;;;5046505;28;20199;-75
2022/09/27 00:11:39;;;;;;;525.15;470.85;;;13.80;99.90;;;;;;5046716;28;20225;-76
2022/09/27 00:14:08;;;;;;;531.35;477.02;;;13.80;99.90;;;;;;5051190;28;20191;-76
2022/09/27 00:16:37;;;;;;;521.28;467.77;;;13.90;99.90;;;;;;5040019;28;20218;-75
2022/09/27 00:19:06;;;;;;;537.42;483.23;;;13.80;99.90;;;;;;5050104;28;20198;-78
2022/09/27 00:21:33;;;;;;;530.03;475.48;;;13.80;99.90;;;;;;5049513;28;20210;-76
2022/09/27 00:24:00;;;;;;;535.63;481.20;;;13.80;99.90;;;;;;5046999;28;20202;-76
2022/09/27 00:26:28;;;;;;;516.38;461.70;;;13.80;99.90;;;;;;5046883;28;20202;-76
2022/09/27 00:28:55;;;;;;;518.15;463.25;;;13.80;99.90;;;;;;5050897;28;20195;-77
2022/09/27 00:31:28;;;;;;;529.42;474.25;;;13.80;99.90;;;;;;5044841;28;20625;-75
2022/09/27 00:33:56;;;;;;;522.67;467.77;;;13.80;99.90;;;;;;5048118;28;20283;-77
2022/09/27 00:36:24;;;;;;;525.70;470.85;;;13.80;99.90;;;;;;5047707;28;20245;-75
2022/09/27 00:38:52;;;;;;;527.42;472.20;;;13.80;99.90;;;;;;5048590;28;20195;-77
2022/09/27 00:41:20;;;;;;;529.97;474.95;;;13.80;99.90;;;;;;5045410;28;20419;-75
2022/09/27 00:43:49;;;;;;;518.78;463.98;;;13.80;99.90;;;;;;5049819;28;20195;-75
2022/09/27 00:46:22;;;;;;;529.72;473.90;;;13.80;99.90;;;;;;5045048;28;20683;-76
2022/09/27 00:49:03;;;;;;;510.27;455.85;;;13.80;99.90;;;;;;5048331;28;20658;-76
2022/09/27 00:51:30;;;;;;;518.10;463.25;;;13.80;99.90;;;;;;5051211;28;20241;-75
2022/09/27 00:53:58;;;;;;;522.80;467.90;;;13.80;99.90;;;;;;5046689;28;20187;-76
2022/09/27 00:56:29;;;;;;;527.80;472.45;;;13.80;99.90;;;;;;5047246;28;20199;-76
2022/09/27 00:58:59;;;;;;;534.10;478.90;;;13.80;99.90;;;;;;5050638;28;20220;-75
2022/09/27 01:01:29;;;;;;;524.63;470.23;;;13.80;99.90;;;;;;5044539;28;20585;-75
2022/09/27 01:04:01;;;;;;;514.72;460.45;;;13.80;99.90;;;;;;5048513;28;20282;-75
2022/09/27 01:06:28;;;;;;;518.75;464.05;;;13.80;99.90;;;;;;5049392;28;20286;-75
2022/09/27 01:08:55;;;;;;;540.92;486.10;;;13.80;99.90;;;;;;5047659;28;20681;-75
2022/09/27 01:11:35;;;;;;;519.53;465.48;;;13.80;99.90;;;;;;5046497;28;20246;-75
2022/09/27 01:14:24;;;;;;;516.83;462.42;;;13.80;99.90;;;;;;5044248;28;20225;-76
2022/09/27 01:17:01;;;;;;;520.50;465.65;;;13.70;99.90;;;;;;5040523;28;20242;-74
2022/09/27 01:19:58;;;;;;;501.67;447.08;;;13.70;99.90;;;;;;5050429;28;20684;-76
2022/09/27 01:22:30;;;;;;;511.15;456.13;;;13.70;99.90;;;;;;5049681;28;20195;-75
2022/09/27 01:25:09;;;;;;;519.45;464.42;;;13.70;99.90;;;;;;5040682;28;20244;-74
2022/09/27 01:28:01;;;;;;;510.88;457.13;;;13.70;99.90;;;;;;5050918;28;20191;-78
2022/09/27 01:30:38;;;;;;;512.88;458.77;;;13.70;99.90;;;;;;5049627;28;20215;-76
2022/09/27 01:33:17;;;;;;;510.02;455.10;;;13.70;99.90;;;;;;5047481;28;20199;-76
2022/09/27 01:36:01;;;;;;;529.40;473.77;;;13.70;99.90;;;;;;5043463;28;20191;-76
2022/09/27 01:38:39;;;;;;;514.45;458.40;;;13.70;99.90;;;;;;5046635;28;20199;-74
2022/09/27 01:41:12;;;;;;;516.50;458.73;;;13.70;99.90;;;;;;5039932;28;20192;-74
2022/09/27 01:43:44;;;;;;;512.88;456.75;;;13.70;99.90;;;;;;5044238;28;20187;-75
2022/09/27 01:46:17;;;;;;;521.60;437.63;;;13.70;99.90;;;;;;5044409;28;20196;-74
2022/09/27 01:48:48;;;;;;;525.22;462.85;;;13.70;99.90;;;;;;5042261;28;20191;-73
2022/09/27 01:51:17;;;;;;;533.40;463.83;;;13.70;99.90;;;;;;5049575;28;20229;-76
2022/09/27 01:53:47;;;;;;;522.95;464.75;;;13.70;99.90;;;;;;5052638;28;20199;-73
2022/09/27 01:56:18;;;;;;;522.15;459.20;;;13.70;99.90;;;;;;5047727;28;20187;-73
2022/09/27 01:58:50;;;;;;;515.33;458.55;;;13.70;99.90;;;;;;5054022;28;20199;-72
2022/09/27 02:01:21;;;;;;;520.03;449.90;;;13.70;99.90;;;;;;5045932;28;20222;-73
2022/09/27 02:03:51;;;;;;;525.20;460.02;;;13.70;99.90;;;;;;5053807;28;20244;-74
2022/09/27 02:06:22;;;;;;;522.15;461.20;;;13.70;99.90;;;;;;5051724;28;20604;-74
2022/09/27 02:08:54;;;;;;;528.33;471.48;;;13.70;99.90;;;;;;5050436;28;20221;-75
2022/09/27 02:11:21;;;;;;;510.15;454.35;;;13.70;99.90;;;;;;5047270;28;20612;-74
2022/09/27 02:13:53;;;;;;;523.72;468.00;;;13.60;99.90;;;;;;5053456;28;20549;-74
2022/09/27 02:16:32;;;;;;;516.78;461.13;;;13.70;99.90;;;;;;5044840;28;20211;-74
2022/09/27 02:19:08;;;;;;;518.30;462.92;;;13.70;99.90;;;;;;5051242;28;20186;-74
2022/09/27 02:21:41;;;;;;;520.55;464.60;;;13.70;99.90;;;;;;5053874;28;20194;-75
2022/09/27 02:24:12;;;;;;;514.42;459.13;;;13.70;99.90;;;;;;5050380;28;20290;-77
2022/09/27 02:26:42;;;;;;;503.75;449.02;;;13.70;99.90;;;;;;5047597;28;20199;-75
2022/09/27 02:29:13;;;;;;;510.30;455.25;;;13.60;99.90;;;;;;5053474;28;20183;-75
2022/09/27 02:31:41;;;;;;;512.72;457.73;;;13.60;99.90;;;;;;5047522;28;20681;-74
2022/09/27 02:34:13;;;;;;;523.20;468.05;;;13.60;99.90;;;;;;5052504;28;20202;-75
2022/09/27 02:36:40;;;;;;;521.00;465.45;;;13.60;99.90;;;;;;5047314;28;20191;-73
2022/09/27 02:39:07;;;;;;;518.55;460.08;;;13.60;99.90;;;;;;5049979;28;20195;-76
2022/09/27 02:41:34;;;;;;;519.92;462.10;;;13.60;99.90;;;;;;5047116;28;20203;-74
2022/09/27 02:44:04;;;;;;;517.47;460.52;;;13.60;99.90;;;;;;5053143;28;20202;-74
2022/09/27 02:46:51;;;;;;;507.70;441.75;;;13.60;99.90;;;;;;5044876;28;20200;-74
2022/09/27 02:49:30;;;;;;;512.30;455.23;;;13.60;99.90;;;;;;5051483;28;20191;-74
2022/09/27 02:52:08;;;;;;;510.73;452.40;;;13.60;99.90;;;;;;5052891;28;20617;-77
2022/09/27 02:54:41;;;;;;;516.65;456.67;;;13.60;99.90;;;;;;5048071;28;20218;-74
2022/09/27 02:57:20;;;;;;;517.13;444.08;;;13.60;99.90;;;;;;5050171;28;20191;-75
2022/09/27 02:59:54;;;;;;;514.80;448.17;;;13.50;99.90;;;;;;5047024;28;20195;-74
2022/09/27 03:02:32;;;;;;;527.47;453.23;;;13.60;99.90;;;;;;5046680;28;20599;-74
2022/09/27 03:05:03;;;;;;;532.15;448.15;;;13.60;99.90;;;;;;5050660;28;20191;-74
2022/09/27 03:07:30;;;;;;;537.85;455.50;;;13.60;99.90;;;;;;5049313;28;20597;-76
2022/09/27 03:09:57;;;;;;;533.25;448.23;;;13.60;99.90;;;;;;5046678;28;20196;-74
2022/09/27 03:12:25;;;;;;;543.28;456.20;;;13.50;99.90;;;;;;5048993;28;20211;-74
2022/09/27 03:14:53;;;;;;;536.28;452.42;;;13.60;99.90;;;;;;5050177;28;20190;-74
2022/09/27 03:17:19;;;;;;;569.58;444.70;;;13.60;99.90;;;;;;5044825;28;20605;-74
2022/09/27 03:19:47;;;;;;;569.15;461.25;;;13.60;99.90;;;;;;5052134;28;20194;-75
2022/09/27 03:22:14;;;;;;;582.35;447.23;;;13.50;99.90;;;;;;5052235;28;20199;-75
2022/09/27 03:24:41;;;;;;;582.55;466.02;;;13.50;99.90;;;;;;5047136;28;20663;-74
2022/09/27 03:27:09;;;;;;;582.67;452.80;;;13.50;99.90;;;;;;5052286;28;20183;-75
2022/09/27 03:29:35;;;;;;;570.83;453.02;;;13.50;99.90;;;;;;5044305;28;20187;-75
2022/09/27 03:32:03;;;;;;;542.65;438.13;;;13.50;99.90;;;;;;5043263;28;20219;-74
2022/09/27 03:34:30;;;;;;;543.35;460.50;;;13.50;99.90;;;;;;5046489;28;20195;-75
2022/09/27 03:36:58;;;;;;;531.47;456.38;;;13.50;99.90;;;;;;5048048;28;20191;-74
2022/09/27 03:39:24;;;;;;;534.75;452.08;;;13.50;99.90;;;;;;5047971;28;20608;-76
2022/09/27 03:41:51;;;;;;;530.00;456.55;;;13.50;99.90;;;;;;5050486;28;20257;-76
2022/09/27 03:44:18;;;;;;;529.03;455.70;;;13.50;99.90;;;;;;5050912;28;20595;-76
2022/09/27 03:46:45;;;;;;;532.70;450.65;;;13.50;99.90;;;;;;5047461;28;20195;-76
2022/09/27 03:49:12;;;;;;;538.80;451.35;;;13.50;99.90;;;;;;5052148;28;20183;-76
2022/09/27 03:51:38;;;;;;;541.97;455.52;;;13.50;99.90;;;;;;5047840;28;20223;-76
2022/09/27 03:54:06;;;;;;;541.83;467.65;;;13.50;99.90;;;;;;5046557;28;20188;-74
2022/09/27 03:56:33;;;;;;;539.15;446.88;;;13.50;99.90;;;;;;5050096;28;20195;-75
2022/09/27 03:59:00;;;;;;;531.10;450.88;;;13.50;99.90;;;;;;5049618;28;20188;-75
2022/09/27 04:01:27;;;;;;;531.47;449.60;;;13.50;99.90;;;;;;5044912;28;20210;-76
2022/09/27 04:03:54;;;;;;;531.63;453.38;;;13.50;99.90;;;;;;5046347;28;20249;-75
2022/09/27 04:06:21;;;;;;;523.53;447.77;;;13.50;99.90;;;;;;5051217;28;20202;-76
2022/09/27 04:08:48;;;;;;;536.00;447.77;;;13.40;99.90;;;;;;5051465;28;20704;-75
2022/09/27 04:11:16;;;;;;;529.40;446.13;;;13.40;99.90;;;;;;5047206;28;20219;-76
2022/09/27 04:13:43;;;;;;;520.30;449.55;;;13.40;99.90;;;;;;5051653;28;20214;-76
2022/09/27 04:16:10;;;;;;;526.35;446.70;;;13.40;99.90;;;;;;5039643;28;20309;-78
2022/09/27 04:18:37;;;;;;;507.73;419.70;;;13.40;99.90;;;;;;5047480;28;20195;-75
2022/09/27 04:21:04;;;;;;;517.08;450.50;;;13.40;99.90;;;;;;5051434;28;20206;-75
2022/09/27 04:23:30;;;;;;;527.80;443.33;;;13.40;99.90;;;;;;5051630;28;20199;-75
2022/09/27 04:25:57;;;;;;;528.80;443.80;;;13.40;99.90;;;;;;5044052;28;20195;-75
2022/09/27 04:28:26;;;;;;;534.58;439.10;;;13.40;99.90;;;;;;5051363;28;20199;-75
2022/09/27 04:30:53;;;;;;;547.90;443.92;;;13.40;99.90;;;;;;5048876;28;20195;-75
2022/09/27 04:33:19;;;;;;;551.22;447.27;;;13.40;99.90;;;;;;5047403;28;20702;-75
2022/09/27 04:38:30;;;;;;;541.25;445.05;;;13.30;99.90;;;;;;5051158;28;20252;-76
2022/09/27 04:41:00;;;;;;;539.10;445.58;;;13.30;99.90;;;;;;5044453;28;20203;-76
2022/09/27 04:43:29;;;;;;;527.35;441.45;;;13.30;99.90;;;;;;5050806;28;20186;-76
2022/09/27 04:45:56;;;;;;;502.52;446.13;;;13.30;99.90;;;;;;5046064;28;20207;-75
2022/09/27 04:48:22;;;;;;;492.27;437.55;;;13.30;99.90;;;;;;5049605;28;20191;-75
2022/09/27 04:50:57;;;;;;;505.58;450.75;;;13.30;99.90;;;;;;5049711;28;20198;-74
2022/09/27 04:53:23;;;;;;;486.35;431.55;;;13.30;99.90;;;;;;5049980;28;20661;-76
2022/09/27 04:55:52;;;;;;;493.42;439.50;;;13.30;99.90;;;;;;5039705;28;20191;-75
2022/09/27 04:58:19;;;;;;;505.42;451.33;;;13.30;99.90;;;;;;5049752;28;20528;-74
2022/09/27 05:00:49;;;;;;;493.70;440.15;;;13.30;99.90;;;;;;5049134;28;20237;-74
2022/09/27 05:03:15;;;;;;;482.42;426.27;;;13.30;99.90;;;;;;5048466;28;20234;-74
2022/09/27 05:05:42;;;;;;;480.40;422.45;;;13.30;99.90;;;;;;5048726;28;20221;-74
2022/09/27 05:08:09;;;;;;;501.05;447.52;;;13.30;99.90;;;;;;5049817;28;20554;-74
2022/09/27 05:10:36;;;;;;;490.42;436.92;;;13.30;99.90;;;;;;5044897;28;20219;-77
2022/09/27 05:13:03;;;;;;;488.00;434.92;;;13.30;99.90;;;;;;5049715;28;20294;-74
2022/09/27 05:15:30;;;;;;;484.20;431.65;;;13.20;99.90;;;;;;5038065;28;20202;-76
2022/09/27 05:17:58;;;;;;;484.50;432.42;;;13.20;99.90;;;;;;5044972;28;20206;-75
2022/09/27 05:20:25;;;;;;;506.17;452.65;;;13.20;99.90;;;;;;5051142;28;20286;-75
2022/09/27 05:22:51;;;;;;;499.08;445.58;;;13.20;99.90;;;;;;5050680;28;20290;-75
2022/09/27 05:25:18;;;;;;;495.17;441.67;;;13.20;99.90;;;;;;5044020;28;20195;-75
2022/09/27 05:27:45;;;;;;;479.27;426.70;;;13.20;99.90;;;;;;5053561;28;20566;-76
2022/09/27 05:30:12;;;;;;;493.20;439.95;;;13.20;99.90;;;;;;5053609;28;20205;-76
2022/09/27 05:32:42;;;;;;;489.20;436.05;;;13.20;99.90;;;;;;5050403;28;20276;-75
2022/09/27 05:35:10;;;;;;;478.63;425.83;;;13.20;99.90;;;;;;5051357;28;20205;-75
2022/09/27 05:37:39;;;;;;;501.08;446.95;;;13.20;99.90;;;;;;5042750;28;20195;-76
2022/09/27 05:40:07;;;;;;;480.08;425.80;;;13.10;99.90;;;;;;5050973;28;20203;-75
2022/09/27 05:42:34;;;;;;;486.35;433.40;;;13.20;99.90;;;;;;5054244;28;20203;-74
2022/09/27 05:45:01;;;;;;;500.25;447.30;;;13.20;99.90;;;;;;5045936;28;20715;-74
2022/09/27 05:47:28;;;;;;;495.05;441.58;;;13.10;99.90;;;;;;5049685;28;20199;-76
2022/09/27 05:49:55;;;;;;;487.90;435.75;;;13.20;99.90;;;;;;5055366;28;20277;-75
2022/09/27 05:52:23;;;;;;;482.60;430.20;;;13.20;99.90;;;;;;5049811;28;20273;-76
2022/09/27 05:54:50;;;;;;;484.67;432.25;;;13.20;99.90;;;;;;5050147;28;20249;-75
2022/09/27 05:57:17;;;;;;;494.52;441.77;;;13.10;99.90;;;;;;5050367;28;20195;-76
2022/09/27 05:59:44;;;;;;;488.92;436.42;;;13.10;99.90;;;;;;5053717;28;20561;-77
2022/09/27 06:02:11;;;;;;;484.90;433.10;;;13.10;99.90;;;;;;5044836;28;20229;-76
2022/09/27 06:04:37;;;;;;;459.65;406.30;;;13.20;99.90;;;;;;5052068;28;20195;-76
2022/09/27 06:07:04;;;;;;;488.08;436.25;;;13.10;99.90;;;;;;5053729;28;20562;-75
2022/09/27 06:09:32;;;;;;;468.92;417.58;;;13.10;99.90;;;;;;5047733;28;20677;-74
2022/09/27 06:11:59;;;;;;;480.08;428.27;;;13.10;99.90;;;;;;5052351;28;20305;-76
2022/09/27 06:14:26;;;;;;;472.75;421.70;;;13.10;99.90;;;;;;5052364;28;20207;-75
2022/09/27 06:16:53;;;;;;;479.35;427.30;;;13.10;99.90;;;;;;5048847;28;20230;-76
2022/09/27 06:19:20;;;;;;;485.80;434.20;;;13.10;99.90;;;;;;5048712;28;20191;-75
2022/09/27 06:21:49;;;;;;;482.02;430.17;;;13.20;99.90;;;;;;5050129;28;20199;-76
2022/09/27 06:24:16;;;;;;;499.35;446.80;;;13.20;99.90;;;;;;5045637;28;20258;-76
2022/09/27 06:26:44;;;;;;;481.63;430.15;;;13.20;99.90;;;;;;5051474;28;20554;-73
2022/09/27 06:29:11;;;;;;;477.88;425.73;;;13.10;99.90;;;;;;5053249;28;20184;-73
2022/09/27 06:31:37;;;;;;;484.13;432.60;;;13.10;99.90;;;;;;5046164;28;20191;-76
2022/09/27 06:34:04;;;;;;;487.10;435.35;;;13.20;99.90;;;;;;5052000;28;20206;-74
2022/09/27 06:36:32;;;;;;;495.88;443.02;;;13.20;99.90;;;;;;5052800;28;20195;-74
2022/09/27 06:39:00;;;;;;;486.33;433.70;;;13.20;99.90;;;;;;5050711;28;20252;-74
2022/09/27 06:41:27;;;;;;;481.77;429.42;;;13.20;99.90;;;;;;5046891;28;20615;-74
2022/09/27 06:43:55;;;;;;;491.08;438.52;;;13.20;99.90;;;;;;5053045;28;20191;-74
2022/09/27 06:46:22;;;;;;;497.52;444.77;;;13.20;99.90;;;;;;5041146;28;20306;-80
2022/09/27 06:48:48;;;;;;;493.92;441.13;;;13.30;99.90;;;;;;5051781;28;20658;-74
2022/09/27 06:51:15;;;;;;;500.77;448.02;;;13.30;99.90;;;;;;5050803;28;20202;-74
2022/09/27 06:53:42;;;;;;;489.63;437.33;;;13.30;99.90;;;;;;5053033;28;20310;-76
2022/09/27 06:56:08;;;;;;;500.35;447.20;;;13.30;99.90;;;;;;5041786;28;20257;-76
2022/09/27 07:01:27;;;;;;;479.52;427.42;;;13.30;99.90;;;;;;5028623;28;20203;-77
2022/09/27 07:03:54;;;;;;;477.77;425.95;;;13.40;99.90;;;;;;5053060;28;20425;-76
2022/09/27 07:06:22;;;;;;;498.55;445.70;;;13.40;99.90;;;;;;5053225;28;20206;-76
2022/09/27 07:08:51;;;;;;;488.38;436.15;;;13.30;99.90;;;;;;5046180;28;20253;-79
2022/09/27 07:11:18;;;;;;;487.30;435.50;;;13.40;99.90;;;;;;5045143;28;20199;-77
2022/09/27 07:13:45;;;;;;;496.90;445.17;;;13.60;99.90;;;;;;5054492;28;20211;-77
2022/09/27 07:16:12;;;;;;;509.42;456.70;;;13.70;99.90;;;;;;5048327;28;20222;-76
2022/09/27 07:18:41;;;;;;;518.03;465.15;;;13.70;99.90;;;;;;5052509;28;20283;-77
2022/09/27 07:21:08;;;;;;;495.23;443.23;;;13.70;99.90;;;;;;5050213;28;20200;-76
2022/09/27 07:23:35;;;;;;;503.27;451.05;;;13.60;99.90;;;;;;5044592;28;20285;-75
2022/09/27 07:26:05;;;;;;;497.42;444.90;;;13.60;99.90;;;;;;5048803;28;20203;-77
2022/09/27 07:28:33;;;;;;;516.88;464.27;;;13.50;99.90;;;;;;5051285;28;20191;-77
2022/09/27 07:31:01;;;;;;;504.40;451.67;;;13.50;99.90;;;;;;5048593;28;20257;-76
2022/09/27 07:33:27;;;;;;;499.25;447.40;;;13.50;99.90;;;;;;5050508;28;20310;-78
2022/09/27 07:35:55;;;;;;;501.80;449.30;;;13.40;99.90;;;;;;5047878;28;20677;-75
2022/09/27 07:38:22;;;;;;;499.30;447.05;;;13.40;99.90;;;;;;5051995;28;20203;-77
2022/09/27 07:40:49;;;;;;;497.08;444.75;;;13.40;99.90;;;;;;5048915;28;20222;-77
2022/09/27 07:43:16;;;;;;;498.30;446.17;;;13.40;99.90;;;;;;5051874;28;20191;-78
2022/09/27 07:45:43;;;;;;;494.77;442.85;;;13.30;99.90;;;;;;5043515;28;20645;-78
2022/09/27 07:48:14;;;;;;;489.13;437.02;;;13.30;99.90;;;;;;5048677;28;20195;-76
2022/09/27 07:50:41;;;;;;;486.73;435.13;;;13.30;99.90;;;;;;5050418;28;20199;-78
2022/09/27 07:53:11;;;;;;;495.05;443.02;;;13.30;99.90;;;;;;5050453;28;20211;-77
2022/09/27 07:55:38;;;;;;;469.60;418.27;;;13.30;99.90;;;;;;5042105;28;20637;-77
2022/09/27 07:58:07;;;;;;;485.52;433.25;;;13.30;99.90;;;;;;5047673;28;20201;-77
2022/09/27 08:00:35;;;;;;;481.83;430.23;;;13.30;99.90;;;;;;5049340;28;20558;-80
2022/09/27 08:03:05;;;;;;;484.23;432.48;;;13.20;99.90;;;;;;5048361;28;20195;-79
2022/09/27 08:05:33;;;;;;;484.42;432.42;;;13.30;99.90;;;;;;5047723;28;20244;-79
2022/09/27 08:08:00;;;;;;;493.83;441.67;;;13.40;99.90;;;;;;5049257;28;20195;-79
2022/09/27 08:10:30;;;;;;;506.63;454.08;;;13.50;99.90;;;;;;5044649;28;20203;-79
2022/09/27 08:12:57;;;;;;;501.67;449.33;;;13.70;99.90;;;;;;5050812;28;20265;-78
2022/09/27 08:15:24;;;;;;;515.63;462.73;;;13.80;99.90;;;;;;5044504;28;20261;-79
2022/09/27 08:17:50;;;;;;;534.05;480.88;;;14.00;99.90;;;;;;5043804;28;20211;-79
2022/09/27 08:20:17;;;;;;;522.03;469.65;;;14.10;99.90;;;;;;5046053;28;20195;-76
2022/09/27 08:22:44;;;;;;;541.88;488.42;;;14.30;99.90;;;;;;5050234;28;20203;-82
2022/09/27 08:25:11;;;;;;;566.70;512.38;;;14.40;99.90;;;;;;5042218;28;20524;-78
2022/09/27 08:27:39;;;;;;;547.95;494.45;;;14.50;99.90;;;;;;5046719;28;20197;-80
2022/09/27 08:30:06;;;;;;;562.78;509.02;;;14.60;99.90;;;;;;5050514;28;20196;-78
2022/09/27 08:32:56;;;;;;;575.60;521.53;;;14.70;99.90;;;;;;5121852;27;20631;-80
2022/09/27 08:35:23;;;;;;;575.45;520.92;;;14.70;99.90;;;;;;5117237;28;20204;-76
2022/09/27 08:37:54;;;;;;;572.38;518.50;;;14.70;99.90;;;;;;5123245;28;20226;-80
2022/09/27 08:40:23;;;;;;;570.47;516.67;;;14.70;99.90;;;;;;5125952;27;20539;-77
2022/09/27 08:43:00;;;;;;;591.47;537.03;;;14.70;99.90;;;;;;5118673;28;20274;-80
2022/09/27 08:45:32;;;;;;;564.63;510.85;;;14.80;99.90;;;;;;5109810;28;20532;-77
2022/09/27 08:48:02;;;;;;;567.20;513.33;;;14.80;99.90;;;;;;5124913;28;20200;-78
2022/09/27 08:50:33;;;;;;;575.15;521.75;;;14.80;99.90;;;;;;5121439;28;20196;-77
2022/09/27 08:53:03;;;;;;;596.63;541.95;;;14.90;99.90;;;;;;5117112;28;20196;-83
2022/09/27 08:55:36;;;;;;;576.55;522.20;;;14.90;99.90;;;;;;5125128;27;20663;-77
2022/09/27 08:58:12;;;;;;;579.35;525.40;;;14.80;99.90;;;;;;5128367;27;20209;-77
2022/09/27 09:00:39;;;;;;;561.67;507.77;;;14.70;99.90;;;;;;5115439;28;20745;-79
2022/09/27 09:03:18;;;;;;;566.92;513.28;;;14.70;99.90;;;;;;5115161;28;20192;-78
2022/09/27 09:05:56;;;;;;;560.47;506.52;;;14.60;99.90;;;;;;5113678;27;20290;-77
2022/09/27 09:08:36;;;;;;;564.00;510.15;;;14.60;99.90;;;;;;5129832;27;20260;-77
2022/09/27 09:14:17;;;;;;;558.85;504.80;;;14.60;99.90;;;;;;5121830;28;20204;-77
2022/09/27 09:16:51;;;;;;;551.67;497.50;;;14.60;99.90;;;;;;5113911;28;20223;-75
2022/09/27 09:19:43;;;;;;;565.45;510.85;;;14.50;99.90;;;;;;5109552;28;20215;-79
2022/09/27 09:22:27;;;;;;;540.28;486.58;;;14.50;99.90;;;;;;5114674;28;20203;-77
2022/09/27 09:25:07;;;;;;;545.30;490.20;;;14.50;99.90;;;;;;5104681;28;20568;-78
2022/09/27 09:27:42;;;;;;;538.13;483.67;;;14.40;99.90;;;;;;5106943;27;20193;-79
2022/09/27 09:30:24;;;;;;;580.58;524.28;;;14.40;99.90;;;;;;5113653;28;20187;-77
2022/09/27 09:33:06;;;;;;;536.75;483.23;;;14.30;99.90;;;;;;5099470;28;20242;-76
2022/09/27 09:35:40;;;;;;;554.92;501.40;;;14.30;99.90;;;;;;5100568;28;20200;-78
2022/09/27 09:38:13;;;;;;;536.70;483.55;;;14.30;99.90;;;;;;5104014;28;20286;-77
2022/09/27 09:40:43;;;;;;;546.38;493.73;;;14.20;99.90;;;;;;5104023;28;20199;-77
2022/09/27 09:43:16;;;;;;;532.67;480.30;;;14.10;99.90;;;;;;5094661;28;20203;-78
2022/09/27 09:45:45;;;;;;;531.58;479.63;;;14.20;99.90;;;;;;5096726;28;20280;-80
2022/09/27 09:48:19;;;;;;;530.65;477.80;;;14.10;99.90;;;;;;5090798;28;20208;-76
2022/09/27 09:50:50;;;;;;;539.70;487.60;;;14.10;99.90;;;;;;5093500;28;20207;-77
2022/09/27 09:53:20;;;;;;;524.50;472.23;;;14.10;99.90;;;;;;5092937;28;20209;-77
2022/09/27 09:55:51;;;;;;;530.78;478.35;;;14.10;99.90;;;;;;5091232;28;20662;-79
2022/09/27 09:58:23;;;;;;;520.67;468.52;;;14.10;99.90;;;;;;5087444;28;20245;-77
2022/09/27 10:00:53;;;;;;;522.13;469.60;;;14.10;99.90;;;;;;5089966;28;20216;-77
2022/09/27 10:03:20;;;;;;;516.30;463.35;;;14.10;99.90;;;;;;5093392;28;20569;-75
2022/09/27 10:05:48;;;;;;;539.95;486.52;;;14.10;99.90;;;;;;5092707;28;20200;-76
2022/09/27 10:08:19;;;;;;;550.60;496.38;;;14.10;99.90;;;;;;5093752;28;20206;-77
2022/09/27 10:10:46;;;;;;;550.65;495.70;;;14.10;99.90;;;;;;5089890;28;20199;-75
2022/09/27 10:13:16;;;;;;;529.88;476.60;;;14.10;99.90;;;;;;5086803;28;20227;-78
2022/09/27 10:15:48;;;;;;;520.83;468.08;;;14.10;99.90;;;;;;5083883;28;20327;-75
2022/09/27 10:18:18;;;;;;;528.72;475.45;;;14.10;99.90;;;;;;5091618;28;20533;-75
2022/09/27 10:20:50;;;;;;;528.72;475.33;;;14.10;99.90;;;;;;5078471;28;20732;-78
2022/09/27 10:23:20;;;;;;;531.45;477.45;;;14.10;99.90;;;;;;5085211;28;20267;-79
2022/09/27 10:25:51;;;;;;;529.05;475.95;;;14.10;99.90;;;;;;5092612;28;20199;-75
2022/09/27 10:28:33;;;;;;;537.88;484.33;;;14.20;99.90;;;;;;5091437;28;20201;-74
2022/09/27 10:31:02;;;;;;;517.70;464.88;;;14.10;99.90;;;;;;5084788;28;20204;-73
2022/09/27 10:33:30;;;;;;;519.15;466.38;;;14.20;99.90;;;;;;5091862;28;20199;-74
2022/09/27 10:35:59;;;;;;;521.38;468.58;;;14.10;99.90;;;;;;5090969;28;20279;-76
2022/09/27 10:38:28;;;;;;;529.15;476.10;;;14.20;99.90;;;;;;5089685;28;20198;-76
2022/09/27 10:40:57;;;;;;;532.42;478.98;;;14.10;99.90;;;;;;5085664;28;20209;-76
2022/09/27 10:43:32;;;;;;;531.80;478.52;;;14.10;99.90;;;;;;5084970;28;20663;-77
2022/09/27 10:46:16;;;;;;;535.55;482.20;;;14.10;99.90;;;;;;5089326;28;20199;-76
2022/09/27 10:48:43;;;;;;;528.22;474.38;;;14.10;99.90;;;;;;5081876;28;20207;-77
2022/09/27 10:51:25;;;;;;;537.80;483.95;;;14.10;99.90;;;;;;5087233;28;20198;-77
2022/09/27 10:53:52;;;;;;;527.28;474.10;;;14.10;99.90;;;;;;5084387;28;20191;-78
2022/09/27 10:56:24;;;;;;;515.15;462.20;;;14.10;99.90;;;;;;5082880;28;20254;-79
2022/09/27 10:58:51;;;;;;;539.60;486.13;;;14.10;99.90;;;;;;5082773;28;20285;-76
2022/09/27 11:01:18;;;;;;;531.65;478.15;;;14.10;99.90;;;;;;5087474;28;20200;-77
2022/09/27 11:03:48;;;;;;;542.05;488.02;;;14.10;99.90;;;;;;5092996;28;20240;-76
2022/09/27 11:06:27;;;;;;;534.55;480.15;;;14.20;99.90;;;;;;5087360;28;20227;-80
2022/09/27 11:09:09;;;;;;;530.28;476.38;;;14.20;99.90;;;;;;5082392;28;20199;-80
2022/09/27 11:11:35;;;;;;;529.80;475.85;;;14.20;99.90;;;;;;5092890;28;20228;-75
2022/09/27 11:14:06;;;;;;;546.55;492.65;;;14.20;99.90;;;;;;5090579;28;20190;-76
2022/09/27 11:16:48;;;;;;;544.85;491.08;;;14.20;99.90;;;;;;5091061;28;20270;-76
2022/09/27 11:19:29;;;;;;;525.10;471.58;;;14.20;99.90;;;;;;5090124;28;20211;-78
2022/09/27 11:22:07;;;;;;;539.83;485.38;;;14.20;99.90;;;;;;5091733;28;20196;-75
2022/09/27 11:24:47;;;;;;;537.30;483.65;;;14.20;99.90;;;;;;5091701;28;20664;-80
2022/09/27 11:27:25;;;;;;;522.78;469.05;;;14.20;99.90;;;;;;5088542;28;20192;-76
2022/09/27 11:30:03;;;;;;;528.78;474.27;;;14.20;99.90;;;;;;5085014;28;20605;-75
2022/09/27 11:32:46;;;;;;;530.92;476.95;;;14.20;99.90;;;;;;5084175;28;20281;-76
2022/09/27 11:35:40;;;;;;;553.80;499.08;;;14.20;99.90;;;;;;5085813;28;20197;-76
2022/09/27 11:38:19;;;;;;;537.08;482.33;;;14.20;99.90;;;;;;5086339;28;20214;-74
2022/09/27 11:41:03;;;;;;;518.17;465.05;;;14.20;99.90;;;;;;5082982;28;20697;-76
2022/09/27 11:43:55;;;;;;;527.58;473.10;;;14.20;99.90;;;;;;5088427;28;20233;-76
2022/09/27 11:46:26;;;;;;;536.25;480.88;;;14.20;99.90;;;;;;5089746;28;20307;-75
2022/09/27 11:49:15;;;;;;;529.80;474.60;;;14.20;99.90;;;;;;5082358;28;20204;-76
2022/09/27 11:52:09;;;;;;;526.20;471.38;;;14.20;99.90;;;;;;5088792;28;20206;-75
2022/09/27 11:54:56;;;;;;;516.78;462.77;;;14.20;99.90;;;;;;5085968;28;20213;-75
2022/09/27 11:57:30;;;;;;;521.83;467.67;;;14.20;99.90;;;;;;5087766;28;20598;-75
2022/09/27 12:00:07;;;;;;;532.50;477.90;;;14.20;99.90;;;;;;5088328;28;20200;-74
2022/09/27 12:02:56;;;;;;;522.78;467.77;;;14.20;99.90;;;;;;5083390;28;20604;-74
2022/09/27 12:05:28;;;;;;;518.13;463.35;;;14.20;99.90;;;;;;5085216;28;20208;-76
2022/09/27 12:08:12;;;;;;;535.92;481.55;;;14.20;99.90;;;;;;5085323;28;20201;-74
2022/09/27 12:10:46;;;;;;;526.28;472.23;;;14.20;99.90;;;;;;5086224;28;20195;-76
2022/09/27 12:13:15;;;;;;;523.28;470.05;;;14.20;99.90;;;;;;5090477;28;20220;-75
2022/09/27 12:15:45;;;;;;;543.40;489.10;;;14.20;99.90;;;;;;5083522;28;20203;-74
2022/09/27 12:18:16;;;;;;;538.97;484.08;;;14.20;99.90;;;;;;5087739;28;20202;-77
2022/09/27 12:20:43;;;;;;;536.38;481.73;;;14.30;99.90;;;;;;5089720;28;20193;-74
2022/09/27 12:23:18;;;;;;;533.97;478.23;;;14.20;99.90;;;;;;5089164;28;20200;-75
2022/09/27 12:25:52;;;;;;;531.50;477.42;;;14.20;99.90;;;;;;5089391;28;20209;-77
2022/09/27 12:28:24;;;;;;;517.70;464.63;;;14.20;99.90;;;;;;5088656;28;20207;-75
2022/09/27 12:30:55;;;;;;;526.80;473.40;;;14.20;99.90;;;;;;5088724;28;20266;-74
2022/09/27 12:33:29;;;;;;;516.10;463.20;;;14.20;99.90;;;;;;5084886;28;20219;-76
2022/09/27 12:36:01;;;;;;;536.15;482.38;;;14.20;99.90;;;;;;5087731;28;20249;-75